sensor_id;sensor_type;location;lat;lon;timestamp;temperature;humidity
19000;DHT22;9633;50.980;13.850;2022-08-19T00:00:49;22.10;99.90
19000;DHT22;9633;50.980;13.850;2022-08-19T00:02:22;22.10;99.90
19000;DHT22;9633;50.980;13.850;2022-08-19T00:03:56;22.10;99.90
19000;DHT22;9633;50.980;13.850;2022-08-19T00:05:29;22.00;99.90
19000;DHT22;9633;50.980;13.850;2022-08-19T00:07:04;22.00;99.90
19000;DHT22;9633;50.980;13.850;2022-08-19T00:08:36;22.00;99.90
19000;DHT22;9633;50.980;13.850;2022-08-19T00:10:14;22.00;99.90
19000;DHT22;9633;50.980;13.850;2022-08-19T00:11:48;22.00;99.90
19000;DHT22;9633;50.980;13.850;2022-08-19T00:13:23;22.10;99.90
19000;DHT22;9633;50.980;13.850;2022-08-19T00:14:56;22.00;99.90
19000;DHT22;9633;50.980;13.850;2022-08-19T00:16:29;22.00;99.90
19000;DHT22;9633;50.980;13.850;2022-08-19T00:18:02;22.10;99.90
19000;DHT22;9633;50.980;13.850;2022-08-19T00:19:36;22.10;99.90
19000;DHT22;9633;50.980;13.850;2022-08-19T00:21:10;22.10;99.90
19000;DHT22;9633;50.980;13.850;2022-08-19T00:22:43;22.10;99.90
19000;DHT22;9633;50.980;13.850;2022-08-19T00:24:17;22.10;99.90
19000;DHT22;9633;50.980;13.850;2022-08-19T00:25:50;22.10;99.90
19000;DHT22;9633;50.980;13.850;2022-08-19T00:27:23;22.10;99.90
19000;DHT22;9633;50.980;13.850;2022-08-19T00:28:59;22.10;99.90
19000;DHT22;9633;50.980;13.850;2022-08-19T00:30:32;22.10;99.90
19000;DHT22;9633;50.980;13.850;2022-08-19T00:32:06;22.00;99.90
19000;DHT22;9633;50.980;13.850;2022-08-19T00:33:41;21.90;99.90
19000;DHT22;9633;50.980;13.850;2022-08-19T00:35:14;21.80;99.90
19000;DHT22;9633;50.980;13.850;2022-08-19T00:36:48;21.70;99.90
19000;DHT22;9633;50.980;13.850;2022-08-19T00:38:21;21.60;99.90
19000;DHT22;9633;50.980;13.850;2022-08-19T00:40:10;21.40;99.90
19000;DHT22;9633;50.980;13.850;2022-08-19T00:41:44;21.40;99.90
19000;DHT22;9633;50.980;13.850;2022-08-19T00:43:20;21.40;99.90
19000;DHT22;9633;50.980;13.850;2022-08-19T00:44:55;21.40;99.90
19000;DHT22;9633;50.980;13.850;2022-08-19T00:46:28;21.40;99.90
19000;DHT22;9633;50.980;13.850;2022-08-19T00:48:02;21.40;99.90
19000;DHT22;9633;50.980;13.850;2022-08-19T00:49:49;21.40;99.90
19000;DHT22;9633;50.980;13.850;2022-08-19T00:51:24;21.40;99.90
19000;DHT22;9633;50.980;13.850;2022-08-19T00:52:58;21.40;99.90
19000;DHT22;9633;50.980;13.850;2022-08-19T00:54:32;21.40;99.90
19000;DHT22;9633;50.980;13.850;2022-08-19T00:56:05;21.40;99.90
19000;DHT22;9633;50.980;13.850;2022-08-19T00:57:44;21.40;99.90
19000;DHT22;9633;50.980;13.850;2022-08-19T00:59:19;21.40;99.90
19000;DHT22;9633;50.980;13.850;2022-08-19T01:01:15;21.50;99.90
19000;DHT22;9633;50.980;13.850;2022-08-19T01:02:48;21.40;99.90
19000;DHT22;9633;50.980;13.850;2022-08-19T01:04:22;21.50;99.90
19000;DHT22;9633;50.980;13.850;2022-08-19T01:05:55;21.40;99.90
19000;DHT22;9633;50.980;13.850;2022-08-19T01:07:29;21.50;99.90
19000;DHT22;9633;50.980;13.850;2022-08-19T01:09:09;21.40;99.90
19000;DHT22;9633;50.980;13.850;2022-08-19T01:10:46;21.50;99.90
19000;DHT22;9633;50.980;13.850;2022-08-19T01:12:20;21.50;99.90
19000;DHT22;9633;50.980;13.850;2022-08-19T01:13:54;21.50;99.90
19000;DHT22;9633;50.980;13.850;2022-08-19T01:15:30;21.40;99.90
19000;DHT22;9633;50.980;13.850;2022-08-19T01:17:05;21.60;99.90
19000;DHT22;9633;50.980;13.850;2022-08-19T01:18:40;21.60;99.90
19000;DHT22;9633;50.980;13.850;2022-08-19T01:20:19;21.60;99.90
19000;DHT22;9633;50.980;13.850;2022-08-19T01:21:57;21.50;99.90
19000;DHT22;9633;50.980;13.850;2022-08-19T01:23:46;21.50;99.90
19000;DHT22;9633;50.980;13.850;2022-08-19T01:25:22;21.50;99.90
19000;DHT22;9633;50.980;13.850;2022-08-19T01:26:58;21.50;99.90
19000;DHT22;9633;50.980;13.850;2022-08-19T01:28:30;21.60;99.90
19000;DHT22;9633;50.980;13.850;2022-08-19T01:30:12;21.50;99.90
19000;DHT22;9633;50.980;13.850;2022-08-19T01:31:45;21.50;99.90
19000;DHT22;9633;50.980;13.850;2022-08-19T01:33:19;21.50;99.90
19000;DHT22;9633;50.980;13.850;2022-08-19T01:34:52;21.50;99.90
19000;DHT22;9633;50.980;13.850;2022-08-19T01:36:29;21.60;99.90
19000;DHT22;9633;50.980;13.850;2022-08-19T01:38:05;21.50;99.90
19000;DHT22;9633;50.980;13.850;2022-08-19T01:39:42;21.50;99.90
19000;DHT22;9633;50.980;13.850;2022-08-19T01:41:17;21.50;99.90
19000;DHT22;9633;50.980;13.850;2022-08-19T01:42:51;21.50;99.90
19000;DHT22;9633;50.980;13.850;2022-08-19T01:44:25;21.50;99.90
19000;DHT22;9633;50.980;13.850;2022-08-19T01:45:58;21.50;99.90
19000;DHT22;9633;50.980;13.850;2022-08-19T01:47:30;21.50;99.90
19000;DHT22;9633;50.980;13.850;2022-08-19T01:49:04;21.40;99.90
19000;DHT22;9633;50.980;13.850;2022-08-19T01:50:37;21.50;99.90
19000;DHT22;9633;50.980;13.850;2022-08-19T01:52:10;21.50;99.90
19000;DHT22;9633;50.980;13.850;2022-08-19T01:53:47;21.50;99.90
19000;DHT22;9633;50.980;13.850;2022-08-19T01:55:22;21.50;99.90
19000;DHT22;9633;50.980;13.850;2022-08-19T01:57:02;21.50;99.90
19000;DHT22;9633;50.980;13.850;2022-08-19T01:58:49;21.50;99.90
19000;DHT22;9633;50.980;13.850;2022-08-19T02:00:28;21.40;99.90
19000;DHT22;9633;50.980;13.850;2022-08-19T02:02:03;21.40;99.90
19000;DHT22;9633;50.980;13.850;2022-08-19T02:03:39;21.40;99.90
19000;DHT22;9633;50.980;13.850;2022-08-19T02:05:12;21.40;99.90
19000;DHT22;9633;50.980;13.850;2022-08-19T02:06:44;21.40;99.90
19000;DHT22;9633;50.980;13.850;2022-08-19T02:08:17;21.40;99.90
19000;DHT22;9633;50.980;13.850;2022-08-19T02:09:51;21.50;99.90
19000;DHT22;9633;50.980;13.850;2022-08-19T02:11:28;21.40;99.90
19000;DHT22;9633;50.980;13.850;2022-08-19T02:13:03;21.40;99.90
19000;DHT22;9633;50.980;13.850;2022-08-19T02:14:36;21.40;99.90
19000;DHT22;9633;50.980;13.850;2022-08-19T02:16:09;21.40;99.90
19000;DHT22;9633;50.980;13.850;2022-08-19T02:17:43;21.40;99.90
19000;DHT22;9633;50.980;13.850;2022-08-19T02:19:16;21.40;99.90
19000;DHT22;9633;50.980;13.850;2022-08-19T02:20:50;21.40;99.90
19000;DHT22;9633;50.980;13.850;2022-08-19T02:22:23;21.40;99.90
19000;DHT22;9633;50.980;13.850;2022-08-19T02:23:57;21.40;99.90
19000;DHT22;9633;50.980;13.850;2022-08-19T02:25:30;21.40;99.90
19000;DHT22;9633;50.980;13.850;2022-08-19T02:27:04;21.40;99.90
19000;DHT22;9633;50.980;13.850;2022-08-19T02:28:38;21.40;99.90
19000;DHT22;9633;50.980;13.850;2022-08-19T02:30:15;21.30;99.90
19000;DHT22;9633;50.980;13.850;2022-08-19T02:31:48;21.40;99.90
19000;DHT22;9633;50.980;13.850;2022-08-19T02:33:21;21.40;99.90
19000;DHT22;9633;50.980;13.850;2022-08-19T02:34:54;21.40;99.90
19000;DHT22;9633;50.980;13.850;2022-08-19T02:36:27;21.40;99.90
19000;DHT22;9633;50.980;13.850;2022-08-19T02:38:01;21.50;99.90
19000;DHT22;9633;50.980;13.850;2022-08-19T02:39:52;21.50;99.90
19000;DHT22;9633;50.980;13.850;2022-08-19T02:41:27;21.50;99.90
19000;DHT22;9633;50.980;13.850;2022-08-19T02:43:03;21.50;99.90
19000;DHT22;9633;50.980;13.850;2022-08-19T02:44:36;21.50;99.90
19000;DHT22;9633;50.980;13.850;2022-08-19T02:46:15;21.40;99.90
19000;DHT22;9633;50.980;13.850;2022-08-19T02:47:49;21.40;99.90
19000;DHT22;9633;50.980;13.850;2022-08-19T02:49:22;21.40;99.90
19000;DHT22;9633;50.980;13.850;2022-08-19T02:50:55;21.40;99.90
19000;DHT22;9633;50.980;13.850;2022-08-19T02:52:29;21.40;99.90
19000;DHT22;9633;50.980;13.850;2022-08-19T02:54:01;21.40;99.90
19000;DHT22;9633;50.980;13.850;2022-08-19T02:55:34;21.50;99.90
19000;DHT22;9633;50.980;13.850;2022-08-19T02:57:16;21.50;99.90
19000;DHT22;9633;50.980;13.850;2022-08-19T02:58:51;21.50;99.90
19000;DHT22;9633;50.980;13.850;2022-08-19T03:00:24;21.40;99.90
19000;DHT22;9633;50.980;13.850;2022-08-19T03:01:57;21.40;99.90
19000;DHT22;9633;50.980;13.850;2022-08-19T03:03:30;21.40;99.90
19000;DHT22;9633;50.980;13.850;2022-08-19T03:05:04;21.40;99.90
19000;DHT22;9633;50.980;13.850;2022-08-19T03:06:38;21.40;99.90
19000;DHT22;9633;50.980;13.850;2022-08-19T03:08:13;21.40;99.90
19000;DHT22;9633;50.980;13.850;2022-08-19T03:09:46;21.50;99.90
19000;DHT22;9633;50.980;13.850;2022-08-19T03:11:21;21.50;99.90
19000;DHT22;9633;50.980;13.850;2022-08-19T03:12:55;21.50;99.90
19000;DHT22;9633;50.980;13.850;2022-08-19T03:14:30;21.50;99.90
19000;DHT22;9633;50.980;13.850;2022-08-19T03:16:05;21.50;99.90
19000;DHT22;9633;50.980;13.850;2022-08-19T03:17:38;21.50;99.90
19000;DHT22;9633;50.980;13.850;2022-08-19T03:19:12;21.50;99.90
19000;DHT22;9633;50.980;13.850;2022-08-19T03:20:48;21.40;99.90
19000;DHT22;9633;50.980;13.850;2022-08-19T03:22:21;21.50;99.90
19000;DHT22;9633;50.980;13.850;2022-08-19T03:23:55;21.50;99.90
19000;DHT22;9633;50.980;13.850;2022-08-19T03:25:28;21.50;99.90
19000;DHT22;9633;50.980;13.850;2022-08-19T03:27:01;21.50;99.90
19000;DHT22;9633;50.980;13.850;2022-08-19T03:28:36;21.50;99.90
19000;DHT22;9633;50.980;13.850;2022-08-19T03:30:12;21.50;99.90
19000;DHT22;9633;50.980;13.850;2022-08-19T03:31:53;21.50;99.90
19000;DHT22;9633;50.980;13.850;2022-08-19T03:33:29;21.50;99.90
19000;DHT22;9633;50.980;13.850;2022-08-19T03:35:03;21.50;99.90
19000;DHT22;9633;50.980;13.850;2022-08-19T03:36:36;21.50;99.90
19000;DHT22;9633;50.980;13.850;2022-08-19T03:38:10;21.50;99.90
19000;DHT22;9633;50.980;13.850;2022-08-19T03:39:43;21.50;99.90
19000;DHT22;9633;50.980;13.850;2022-08-19T03:41:19;21.50;99.90
19000;DHT22;9633;50.980;13.850;2022-08-19T03:42:53;21.50;99.90
19000;DHT22;9633;50.980;13.850;2022-08-19T03:44:27;21.50;99.90
19000;DHT22;9633;50.980;13.850;2022-08-19T03:46:03;21.50;99.90
19000;DHT22;9633;50.980;13.850;2022-08-19T03:47:37;21.50;99.90
19000;DHT22;9633;50.980;13.850;2022-08-19T03:49:11;21.50;99.90
19000;DHT22;9633;50.980;13.850;2022-08-19T03:50:45;21.50;99.90
19000;DHT22;9633;50.980;13.850;2022-08-19T03:52:18;21.50;99.90
19000;DHT22;9633;50.980;13.850;2022-08-19T03:53:52;21.50;99.90
19000;DHT22;9633;50.980;13.850;2022-08-19T03:55:24;21.50;99.90
19000;DHT22;9633;50.980;13.850;2022-08-19T03:56:57;21.40;99.90
19000;DHT22;9633;50.980;13.850;2022-08-19T03:58:31;21.50;99.90
19000;DHT22;9633;50.980;13.850;2022-08-19T04:00:05;21.50;99.90
19000;DHT22;9633;50.980;13.850;2022-08-19T04:01:46;21.40;99.90
19000;DHT22;9633;50.980;13.850;2022-08-19T04:03:18;21.40;99.90
19000;DHT22;9633;50.980;13.850;2022-08-19T04:04:53;21.50;99.90
19000;DHT22;9633;50.980;13.850;2022-08-19T04:06:31;21.40;99.90
19000;DHT22;9633;50.980;13.850;2022-08-19T04:08:04;21.40;99.90
19000;DHT22;9633;50.980;13.850;2022-08-19T04:09:42;21.40;99.90
19000;DHT22;9633;50.980;13.850;2022-08-19T04:11:18;21.30;99.90
19000;DHT22;9633;50.980;13.850;2022-08-19T04:13:13;21.40;99.90
19000;DHT22;9633;50.980;13.850;2022-08-19T04:14:46;21.40;99.90
19000;DHT22;9633;50.980;13.850;2022-08-19T04:16:21;21.40;99.90
19000;DHT22;9633;50.980;13.850;2022-08-19T04:18:05;21.30;99.90
19000;DHT22;9633;50.980;13.850;2022-08-19T04:19:39;21.30;99.90
19000;DHT22;9633;50.980;13.850;2022-08-19T04:21:17;21.30;99.90
19000;DHT22;9633;50.980;13.850;2022-08-19T04:22:49;21.40;99.90
19000;DHT22;9633;50.980;13.850;2022-08-19T04:24:23;21.30;99.90
19000;DHT22;9633;50.980;13.850;2022-08-19T04:25:56;21.30;99.90
19000;DHT22;9633;50.980;13.850;2022-08-19T04:27:30;21.40;99.90
19000;DHT22;9633;50.980;13.850;2022-08-19T04:29:06;21.30;99.90
19000;DHT22;9633;50.980;13.850;2022-08-19T04:30:46;21.30;99.90
19000;DHT22;9633;50.980;13.850;2022-08-19T04:32:20;21.30;99.90
19000;DHT22;9633;50.980;13.850;2022-08-19T04:33:57;21.40;99.90
19000;DHT22;9633;50.980;13.850;2022-08-19T04:35:35;21.40;99.90
19000;DHT22;9633;50.980;13.850;2022-08-19T04:37:08;21.40;99.90
19000;DHT22;9633;50.980;13.850;2022-08-19T04:38:44;21.30;99.90
19000;DHT22;9633;50.980;13.850;2022-08-19T04:40:17;21.30;99.90
19000;DHT22;9633;50.980;13.850;2022-08-19T04:42:08;21.40;99.90
19000;DHT22;9633;50.980;13.850;2022-08-19T04:44:02;21.30;99.90
19000;DHT22;9633;50.980;13.850;2022-08-19T04:45:36;21.30;99.90
19000;DHT22;9633;50.980;13.850;2022-08-19T04:47:14;21.30;99.90
19000;DHT22;9633;50.980;13.850;2022-08-19T04:49:09;21.30;99.90
19000;DHT22;9633;50.980;13.850;2022-08-19T04:50:44;21.30;99.90
19000;DHT22;9633;50.980;13.850;2022-08-19T04:52:17;21.30;99.90
19000;DHT22;9633;50.980;13.850;2022-08-19T04:53:50;21.30;99.90
19000;DHT22;9633;50.980;13.850;2022-08-19T04:55:24;21.40;99.90
19000;DHT22;9633;50.980;13.850;2022-08-19T04:56:58;21.30;99.90
19000;DHT22;9633;50.980;13.850;2022-08-19T04:58:31;21.20;99.90
19000;DHT22;9633;50.980;13.850;2022-08-19T05:00:06;21.10;99.90
19000;DHT22;9633;50.980;13.850;2022-08-19T05:01:39;21.20;99.90
19000;DHT22;9633;50.980;13.850;2022-08-19T05:03:15;21.10;99.90
19000;DHT22;9633;50.980;13.850;2022-08-19T05:04:50;21.10;99.90
19000;DHT22;9633;50.980;13.850;2022-08-19T05:06:23;21.20;99.90
19000;DHT22;9633;50.980;13.850;2022-08-19T05:07:57;21.20;99.90
19000;DHT22;9633;50.980;13.850;2022-08-19T05:09:30;21.30;99.90
19000;DHT22;9633;50.980;13.850;2022-08-19T05:11:26;21.30;99.90
19000;DHT22;9633;50.980;13.850;2022-08-19T05:13:00;21.40;99.90
19000;DHT22;9633;50.980;13.850;2022-08-19T05:14:33;21.30;99.90
19000;DHT22;9633;50.980;13.850;2022-08-19T05:16:09;21.30;99.90
19000;DHT22;9633;50.980;13.850;2022-08-19T05:17:43;21.30;99.90
19000;DHT22;9633;50.980;13.850;2022-08-19T05:19:36;21.30;99.90
19000;DHT22;9633;50.980;13.850;2022-08-19T05:21:29;21.30;99.90
19000;DHT22;9633;50.980;13.850;2022-08-19T05:23:20;21.30;99.90
19000;DHT22;9633;50.980;13.850;2022-08-19T05:24:53;21.30;99.90
19000;DHT22;9633;50.980;13.850;2022-08-19T05:26:46;21.20;99.90
19000;DHT22;9633;50.980;13.850;2022-08-19T05:28:20;21.20;99.90
19000;DHT22;9633;50.980;13.850;2022-08-19T05:29:53;21.20;99.90
19000;DHT22;9633;50.980;13.850;2022-08-19T05:31:27;21.10;99.90
19000;DHT22;9633;50.980;13.850;2022-08-19T05:33:00;21.10;99.90
19000;DHT22;9633;50.980;13.850;2022-08-19T05:34:33;21.00;99.90
19000;DHT22;9633;50.980;13.850;2022-08-19T05:36:07;21.00;99.90
19000;DHT22;9633;50.980;13.850;2022-08-19T05:37:42;21.10;99.90
19000;DHT22;9633;50.980;13.850;2022-08-19T05:39:18;21.00;99.90
19000;DHT22;9633;50.980;13.850;2022-08-19T05:40:52;21.10;99.90
19000;DHT22;9633;50.980;13.850;2022-08-19T05:42:25;21.00;99.90
19000;DHT22;9633;50.980;13.850;2022-08-19T05:44:00;21.00;99.90
19000;DHT22;9633;50.980;13.850;2022-08-19T05:45:38;21.00;99.90
19000;DHT22;9633;50.980;13.850;2022-08-19T05:47:13;21.00;99.90
19000;DHT22;9633;50.980;13.850;2022-08-19T05:48:46;21.00;99.90
19000;DHT22;9633;50.980;13.850;2022-08-19T05:50:20;21.00;99.90
19000;DHT22;9633;50.980;13.850;2022-08-19T05:51:55;21.00;99.90
19000;DHT22;9633;50.980;13.850;2022-08-19T05:53:29;20.90;99.90
19000;DHT22;9633;50.980;13.850;2022-08-19T05:55:03;20.90;99.90
19000;DHT22;9633;50.980;13.850;2022-08-19T05:56:37;20.80;99.90
19000;DHT22;9633;50.980;13.850;2022-08-19T05:58:10;20.90;99.90
19000;DHT22;9633;50.980;13.850;2022-08-19T05:59:43;20.90;99.90
19000;DHT22;9633;50.980;13.850;2022-08-19T06:01:18;20.90;99.90
19000;DHT22;9633;50.980;13.850;2022-08-19T06:02:51;20.90;99.90
19000;DHT22;9633;50.980;13.850;2022-08-19T06:04:26;20.90;99.90
19000;DHT22;9633;50.980;13.850;2022-08-19T06:06:00;20.90;99.90
19000;DHT22;9633;50.980;13.850;2022-08-19T06:07:34;20.90;99.90
19000;DHT22;9633;50.980;13.850;2022-08-19T06:09:08;20.90;99.90
19000;DHT22;9633;50.980;13.850;2022-08-19T06:10:42;20.90;99.90
19000;DHT22;9633;50.980;13.850;2022-08-19T06:12:15;20.90;99.90
19000;DHT22;9633;50.980;13.850;2022-08-19T06:13:53;20.90;99.90
19000;DHT22;9633;50.980;13.850;2022-08-19T06:15:31;20.90;99.90
19000;DHT22;9633;50.980;13.850;2022-08-19T06:17:04;20.90;99.90
19000;DHT22;9633;50.980;13.850;2022-08-19T06:18:38;20.90;99.90
19000;DHT22;9633;50.980;13.850;2022-08-19T06:20:14;20.90;99.90
19000;DHT22;9633;50.980;13.850;2022-08-19T06:22:09;20.90;99.90
19000;DHT22;9633;50.980;13.850;2022-08-19T06:23:45;20.80;99.90
19000;DHT22;9633;50.980;13.850;2022-08-19T06:25:19;20.80;99.90
19000;DHT22;9633;50.980;13.850;2022-08-19T06:26:53;20.80;99.90
19000;DHT22;9633;50.980;13.850;2022-08-19T06:28:32;20.80;99.90
19000;DHT22;9633;50.980;13.850;2022-08-19T06:30:06;20.80;99.90
19000;DHT22;9633;50.980;13.850;2022-08-19T06:31:42;20.80;99.90
19000;DHT22;9633;50.980;13.850;2022-08-19T06:33:15;20.80;99.90
19000;DHT22;9633;50.980;13.850;2022-08-19T06:34:49;20.80;99.90
19000;DHT22;9633;50.980;13.850;2022-08-19T06:36:25;20.80;99.90
19000;DHT22;9633;50.980;13.850;2022-08-19T06:38:02;20.80;99.90
19000;DHT22;9633;50.980;13.850;2022-08-19T06:39:38;20.80;99.90
19000;DHT22;9633;50.980;13.850;2022-08-19T06:41:13;20.80;99.90
19000;DHT22;9633;50.980;13.850;2022-08-19T06:42:46;20.90;99.90
19000;DHT22;9633;50.980;13.850;2022-08-19T06:44:28;20.90;99.90
19000;DHT22;9633;50.980;13.850;2022-08-19T06:46:15;20.80;99.90
19000;DHT22;9633;50.980;13.850;2022-08-19T06:47:49;20.90;99.90
19000;DHT22;9633;50.980;13.850;2022-08-19T06:49:26;21.00;99.90
19000;DHT22;9633;50.980;13.850;2022-08-19T06:51:03;21.00;99.90
19000;DHT22;9633;50.980;13.850;2022-08-19T06:52:39;21.00;99.90
19000;DHT22;9633;50.980;13.850;2022-08-19T06:54:13;21.00;99.90
19000;DHT22;9633;50.980;13.850;2022-08-19T06:55:50;21.00;99.90
19000;DHT22;9633;50.980;13.850;2022-08-19T06:57:34;21.00;99.90
19000;DHT22;9633;50.980;13.850;2022-08-19T06:59:09;21.00;99.90
19000;DHT22;9633;50.980;13.850;2022-08-19T07:00:43;21.00;99.90
19000;DHT22;9633;50.980;13.850;2022-08-19T07:02:16;21.00;99.90
19000;DHT22;9633;50.980;13.850;2022-08-19T07:03:50;21.00;99.90
19000;DHT22;9633;50.980;13.850;2022-08-19T07:05:23;21.00;99.90
19000;DHT22;9633;50.980;13.850;2022-08-19T07:06:58;21.10;99.90
19000;DHT22;9633;50.980;13.850;2022-08-19T07:08:50;21.10;99.90
19000;DHT22;9633;50.980;13.850;2022-08-19T07:10:27;21.10;99.90
19000;DHT22;9633;50.980;13.850;2022-08-19T07:12:04;21.20;99.90
19000;DHT22;9633;50.980;13.850;2022-08-19T07:13:41;21.20;99.90
19000;DHT22;9633;50.980;13.850;2022-08-19T07:15:15;21.10;99.90
19000;DHT22;9633;50.980;13.850;2022-08-19T07:16:50;21.20;99.90
19000;DHT22;9633;50.980;13.850;2022-08-19T07:18:26;21.20;99.90
19000;DHT22;9633;50.980;13.850;2022-08-19T07:19:59;21.10;99.90
19000;DHT22;9633;50.980;13.850;2022-08-19T07:21:38;21.10;99.90
19000;DHT22;9633;50.980;13.850;2022-08-19T07:23:11;21.10;99.90
19000;DHT22;9633;50.980;13.850;2022-08-19T07:24:47;21.10;99.90
19000;DHT22;9633;50.980;13.850;2022-08-19T07:26:24;21.00;99.90
19000;DHT22;9633;50.980;13.850;2022-08-19T07:27:59;21.00;99.90
19000;DHT22;9633;50.980;13.850;2022-08-19T07:29:35;21.00;99.90
19000;DHT22;9633;50.980;13.850;2022-08-19T07:31:10;21.00;99.90
19000;DHT22;9633;50.980;13.850;2022-08-19T07:32:46;21.00;99.90
19000;DHT22;9633;50.980;13.850;2022-08-19T07:34:21;21.00;99.90
19000;DHT22;9633;50.980;13.850;2022-08-19T07:35:55;21.00;99.90
19000;DHT22;9633;50.980;13.850;2022-08-19T07:37:28;21.00;99.90
19000;DHT22;9633;50.980;13.850;2022-08-19T07:39:10;21.00;99.90
19000;DHT22;9633;50.980;13.850;2022-08-19T07:40:44;21.00;99.90
19000;DHT22;9633;50.980;13.850;2022-08-19T07:42:18;21.10;99.90
19000;DHT22;9633;50.980;13.850;2022-08-19T07:43:52;21.20;99.90
19000;DHT22;9633;50.980;13.850;2022-08-19T07:45:27;21.10;99.90
19000;DHT22;9633;50.980;13.850;2022-08-19T07:47:01;21.20;99.90
19000;DHT22;9633;50.980;13.850;2022-08-19T07:48:35;21.30;99.90
19000;DHT22;9633;50.980;13.850;2022-08-19T07:50:10;21.30;99.90
19000;DHT22;9633;50.980;13.850;2022-08-19T07:51:44;21.40;99.90
19000;DHT22;9633;50.980;13.850;2022-08-19T07:53:17;21.40;99.90
19000;DHT22;9633;50.980;13.850;2022-08-19T07:54:51;21.30;99.90
19000;DHT22;9633;50.980;13.850;2022-08-19T07:56:24;21.40;99.90
19000;DHT22;9633;50.980;13.850;2022-08-19T07:57:57;21.50;99.90
19000;DHT22;9633;50.980;13.850;2022-08-19T07:59:34;21.50;99.90
19000;DHT22;9633;50.980;13.850;2022-08-19T08:01:12;21.40;99.90
19000;DHT22;9633;50.980;13.850;2022-08-19T08:02:47;21.50;99.90
19000;DHT22;9633;50.980;13.850;2022-08-19T08:04:22;21.40;99.90
19000;DHT22;9633;50.980;13.850;2022-08-19T08:06:13;21.40;99.90
19000;DHT22;9633;50.980;13.850;2022-08-19T08:08:04;21.50;99.90
19000;DHT22;9633;50.980;13.850;2022-08-19T08:09:59;21.60;99.90
19000;DHT22;9633;50.980;13.850;2022-08-19T08:11:34;21.60;99.90
19000;DHT22;9633;50.980;13.850;2022-08-19T08:13:09;21.60;99.90
19000;DHT22;9633;50.980;13.850;2022-08-19T08:14:45;21.50;99.90
19000;DHT22;9633;50.980;13.850;2022-08-19T08:16:20;21.60;99.90
19000;DHT22;9633;50.980;13.850;2022-08-19T08:17:53;21.30;99.90
19000;DHT22;9633;50.980;13.850;2022-08-19T08:19:29;21.30;99.90
19000;DHT22;9633;50.980;13.850;2022-08-19T08:21:02;21.30;99.90
19000;DHT22;9633;50.980;13.850;2022-08-19T08:22:36;21.30;99.90
19000;DHT22;9633;50.980;13.850;2022-08-19T08:24:28;21.40;99.90
19000;DHT22;9633;50.980;13.850;2022-08-19T08:26:03;21.50;99.90
19000;DHT22;9633;50.980;13.850;2022-08-19T08:27:36;21.40;99.90
19000;DHT22;9633;50.980;13.850;2022-08-19T08:29:11;21.40;99.90
19000;DHT22;9633;50.980;13.850;2022-08-19T08:30:46;21.20;99.90
19000;DHT22;9633;50.980;13.850;2022-08-19T08:32:22;21.20;99.90
19000;DHT22;9633;50.980;13.850;2022-08-19T08:33:56;21.40;99.90
19000;DHT22;9633;50.980;13.850;2022-08-19T08:35:29;21.20;99.90
19000;DHT22;9633;50.980;13.850;2022-08-19T08:37:02;21.30;99.90
19000;DHT22;9633;50.980;13.850;2022-08-19T08:38:36;21.10;99.90
19000;DHT22;9633;50.980;13.850;2022-08-19T08:40:22;21.20;99.90
19000;DHT22;9633;50.980;13.850;2022-08-19T08:42:01;21.30;99.90
19000;DHT22;9633;50.980;13.850;2022-08-19T08:43:51;21.50;99.90
19000;DHT22;9633;50.980;13.850;2022-08-19T08:45:25;21.70;99.90
19000;DHT22;9633;50.980;13.850;2022-08-19T08:47:05;21.80;99.90
19000;DHT22;9633;50.980;13.850;2022-08-19T08:48:50;21.70;99.90
19000;DHT22;9633;50.980;13.850;2022-08-19T08:50:29;22.00;99.90
19000;DHT22;9633;50.980;13.850;2022-08-19T08:52:07;22.20;99.90
19000;DHT22;9633;50.980;13.850;2022-08-19T08:53:42;22.30;99.90
19000;DHT22;9633;50.980;13.850;2022-08-19T08:55:19;22.20;99.90
19000;DHT22;9633;50.980;13.850;2022-08-19T08:56:53;22.20;99.90
19000;DHT22;9633;50.980;13.850;2022-08-19T08:58:30;22.10;99.90
19000;DHT22;9633;50.980;13.850;2022-08-19T09:00:10;22.00;99.90
19000;DHT22;9633;50.980;13.850;2022-08-19T09:01:48;21.90;99.90
19000;DHT22;9633;50.980;13.850;2022-08-19T09:03:26;22.00;99.90
19000;DHT22;9633;50.980;13.850;2022-08-19T09:05:04;21.90;99.90
19000;DHT22;9633;50.980;13.850;2022-08-19T09:06:42;22.20;99.90
19000;DHT22;9633;50.980;13.850;2022-08-19T09:08:25;22.30;99.90
19000;DHT22;9633;50.980;13.850;2022-08-19T09:10:04;22.30;99.90
19000;DHT22;9633;50.980;13.850;2022-08-19T09:12:01;22.30;99.90
19000;DHT22;9633;50.980;13.850;2022-08-19T09:13:44;22.20;99.90
19000;DHT22;9633;50.980;13.850;2022-08-19T09:15:22;21.90;99.90
19000;DHT22;9633;50.980;13.850;2022-08-19T09:17:04;21.80;99.90
19000;DHT22;9633;50.980;13.850;2022-08-19T09:18:41;21.60;99.90
19000;DHT22;9633;50.980;13.850;2022-08-19T09:20:20;21.60;99.90
19000;DHT22;9633;50.980;13.850;2022-08-19T09:21:57;21.70;99.90
19000;DHT22;9633;50.980;13.850;2022-08-19T09:23:32;21.80;99.90
19000;DHT22;9633;50.980;13.850;2022-08-19T09:25:08;21.90;99.90
19000;DHT22;9633;50.980;13.850;2022-08-19T09:26:42;22.20;99.90
19000;DHT22;9633;50.980;13.850;2022-08-19T09:28:23;22.50;99.90
19000;DHT22;9633;50.980;13.850;2022-08-19T09:29:58;22.60;99.90
19000;DHT22;9633;50.980;13.850;2022-08-19T09:31:32;22.40;99.90
19000;DHT22;9633;50.980;13.850;2022-08-19T09:33:06;22.70;99.90
19000;DHT22;9633;50.980;13.850;2022-08-19T09:34:39;23.00;99.90
19000;DHT22;9633;50.980;13.850;2022-08-19T09:36:19;23.30;99.90
19000;DHT22;9633;50.980;13.850;2022-08-19T09:38:05;23.40;99.90
19000;DHT22;9633;50.980;13.850;2022-08-19T09:39:41;23.30;99.90
19000;DHT22;9633;50.980;13.850;2022-08-19T09:41:16;23.30;99.90
19000;DHT22;9633;50.980;13.850;2022-08-19T09:42:51;23.10;99.90
19000;DHT22;9633;50.980;13.850;2022-08-19T09:44:24;23.10;99.90
19000;DHT22;9633;50.980;13.850;2022-08-19T09:45:58;23.50;99.90
19000;DHT22;9633;50.980;13.850;2022-08-19T09:47:32;23.70;99.90
19000;DHT22;9633;50.980;13.850;2022-08-19T09:49:11;24.50;99.90
19000;DHT22;9633;50.980;13.850;2022-08-19T09:50:45;25.50;99.90
19000;DHT22;9633;50.980;13.850;2022-08-19T09:52:24;26.50;99.90
19000;DHT22;9633;50.980;13.850;2022-08-19T09:54:04;26.70;99.90
19000;DHT22;9633;50.980;13.850;2022-08-19T09:55:42;26.60;99.90
19000;DHT22;9633;50.980;13.850;2022-08-19T09:57:17;26.80;99.90
19000;DHT22;9633;50.980;13.850;2022-08-19T09:58:51;27.20;47.00
19000;DHT22;9633;50.980;13.850;2022-08-19T10:00:24;26.70;53.50
19000;DHT22;9633;50.980;13.850;2022-08-19T10:01:58;26.20;99.90
19000;DHT22;9633;50.980;13.850;2022-08-19T10:03:41;26.60;99.90
19000;DHT22;9633;50.980;13.850;2022-08-19T10:05:14;26.80;54.80
19000;DHT22;9633;50.980;13.850;2022-08-19T10:07:05;25.90;99.90